Time,TemperatureF,DewpointF,PressureIn,WindDirection,WindDirectionDegrees,WindSpeedMPH,WindSpeedGustMPH,Humidity,HourlyPrecipIn,Conditions,Clouds,dailyrainin,SoftwareType,DateUTC
2013-05-25 09:10:00,75.4,72.3,30.03,ESE,118,11.0,11.0,90,0.00,,,0.00,Wunderground v.1.15,2013-05-25 13:10:00,
2013-05-25 09:20:00,75.1,72.3,30.02,ESE,117,11.0,11.0,91,0.00,,,0.00,Wunderground v.1.15,2013-05-25 13:20:00,
2013-05-25 09:30:00,75.1,72.0,30.02,East,81,10.0,10.0,90,0.00,,,0.00,Wunderground v.1.15,2013-05-25 13:30:00,
2013-05-25 09:40:00,75.1,72.0,30.02,East,99,9.0,12.0,90,0.00,,,0.00,Wunderground v.1.15,2013-05-25 13:40:00,
2013-05-25 09:50:00,75.3,71.8,30.02,SE,125,10.0,10.0,89,0.00,,,0.00,Wunderground v.1.15,2013-05-25 13:50:00,
2013-05-25 10:00:00,76.0,72.2,30.01,ESE,102,8.0,8.0,88,0.00,,,0.00,Wunderground v.1.15,2013-05-25 14:00:00,
2013-05-25 10:10:00,76.0,71.8,30.01,ESE,120,7.0,7.0,87,0.00,,,0.00,Wunderground v.1.15,2013-05-25 14:10:00,
2013-05-25 10:20:00,76.8,72.6,30.01,ESE,103,5.0,5.0,87,0.09,,,0.03,Wunderground v.1.15,2013-05-25 14:20:00,
2013-05-25 10:30:00,77.6,72.7,30.01,East,100,7.0,7.0,85,0.04,,,0.03,Wunderground v.1.15,2013-05-25 14:30:00,
2013-05-25 10:40:00,77.9,72.3,30.01,ESE,105,8.0,8.0,83,0.00,,,0.03,Wunderground v.1.15,2013-05-25 14:40:00,
2013-05-25 10:50:00,78.6,72.6,30.01,ESE,114,8.0,8.0,82,0.00,,,0.03,Wunderground v.1.15,2013-05-25 14:50:00,
2013-05-25 11:00:00,78.8,73.2,30.01,ESE,107,10.0,10.0,83,0.00,,,0.03,Wunderground v.1.15,2013-05-25 15:00:00,
2013-05-25 11:10:00,79.4,73.8,30.01,ESE,115,9.0,12.0,83,0.00,,,0.03,Wunderground v.1.15,2013-05-25 15:10:00,
2013-05-25 11:20:00,79.8,74.2,30.01,East,99,9.0,9.0,83,0.00,,,0.03,Wunderground v.1.15,2013-05-25 15:20:00,
2013-05-25 11:30:00,79.9,73.9,30.02,ENE,73,7.0,11.0,82,0.00,,,0.03,Wunderground v.1.15,2013-05-25 15:30:00,
2013-05-25 11:40:00,79.9,73.9,30.02,ESE,119,9.0,9.0,82,0.00,,,0.03,Wunderground v.1.15,2013-05-25 15:40:00,
2013-05-25 11:50:00,80.1,74.1,30.02,East,92,8.0,8.0,82,0.00,,,0.03,Wunderground v.1.15,2013-05-25 15:50:00,
2013-05-25 12:00:00,80.3,74.3,30.02,East,97,8.0,8.0,82,0.00,,,0.03,Wunderground v.1.15,2013-05-25 16:00:00,
2013-05-25 12:10:00,79.9,73.5,30.02,ENE,76,10.0,10.0,81,0.00,,,0.03,Wunderground v.1.15,2013-05-25 16:10:00,
2013-05-25 12:30:00,80.1,73.7,30.02,ENE,76,8.0,10.0,81,0.00,,,0.03,Wunderground v.1.15,2013-05-25 16:30:00,
2013-05-25 12:40:00,80.1,74.1,30.02,ENE,72,7.0,10.0,82,0.00,,,0.03,Wunderground v.1.15,2013-05-25 16:40:00,
2013-05-25 12:50:00,80.1,74.8,30.01,East,99,8.0,8.0,84,0.00,,,0.03,Wunderground v.1.15,2013-05-25 16:50:00,
2013-05-25 13:00:00,79.9,75.3,30.01,ENE,67,7.0,7.0,86,0.00,,,0.03,Wunderground v.1.15,2013-05-25 17:00:00,
2013-05-25 13:10:00,79.9,75.0,30.01,East,83,7.0,7.0,85,0.00,,,0.03,Wunderground v.1.15,2013-05-25 17:10:00,
2013-05-25 13:20:00,79.9,75.0,30.00,East,88,8.0,9.0,85,0.00,,,0.03,Wunderground v.1.15,2013-05-25 17:20:00,
2013-05-25 13:30:00,79.9,75.0,30.00,East,79,8.0,8.0,85,0.00,,,0.03,Wunderground v.1.15,2013-05-25 17:30:00,
2013-05-25 13:40:00,79.6,74.3,30.00,ENE,68,8.0,8.0,84,0.00,,,0.03,Wunderground v.1.15,2013-05-25 17:40:00,
2013-05-25 14:00:00,80.1,74.5,30.00,ENE,61,7.0,7.0,83,0.00,,,0.03,Wunderground v.1.15,2013-05-25 18:00:00,
2013-05-25 14:10:00,79.9,73.9,30.00,ESE,111,7.0,7.0,82,0.00,,,0.03,Wunderground v.1.15,2013-05-25 18:10:00,
2013-05-25 14:30:00,79.8,73.1,29.98,ENE,66,8.0,13.0,80,0.00,,,0.03,Wunderground v.1.15,2013-05-25 18:30:00,
2013-05-25 14:40:00,79.9,73.2,29.98,East,88,9.0,9.0,80,0.00,,,0.03,Wunderground v.1.15,2013-05-25 18:40:00,
2013-05-25 15:00:00,80.1,74.1,29.97,ENE,76,9.0,10.0,82,0.00,,,0.03,Wunderground v.1.15,2013-05-25 19:00:00,
2013-05-25 15:10:00,80.3,74.3,29.97,East,79,9.0,9.0,82,0.00,,,0.03,Wunderground v.1.15,2013-05-25 19:10:00,
2013-05-25 15:20:00,80.3,74.7,29.97,NE,41,9.0,9.0,83,0.00,,,0.03,Wunderground v.1.15,2013-05-25 19:20:00,
2013-05-25 15:30:00,80.3,74.7,29.97,ENE,59,8.0,8.0,83,0.00,,,0.03,Wunderground v.1.15,2013-05-25 19:30:00,
2013-05-25 15:40:00,80.1,74.5,29.97,ENE,68,9.0,9.0,83,0.00,,,0.03,Wunderground v.1.15,2013-05-25 19:40:00,
2013-05-25 15:50:00,79.9,74.3,29.97,ENE,72,9.0,17.0,83,0.00,,,0.03,Wunderground v.1.15,2013-05-25 19:50:00,
2013-05-25 16:00:00,79.9,74.6,29.97,ENE,75,9.0,15.0,84,0.00,,,0.03,Wunderground v.1.15,2013-05-25 20:00:00,
2013-05-25 16:10:00,79.8,74.5,29.97,NE,51,9.0,9.0,84,0.00,,,0.03,Wunderground v.1.15,2013-05-25 20:10:00,
2013-05-25 16:20:00,79.8,74.5,29.96,ENE,70,8.0,13.0,84,0.00,,,0.03,Wunderground v.1.15,2013-05-25 20:20:00,
2013-05-25 16:30:00,79.6,74.7,29.97,ENE,68,7.0,11.0,85,0.00,,,0.03,Wunderground v.1.15,2013-05-25 20:30:00,
2013-05-25 16:40:00,79.6,74.7,29.97,ENE,58,8.0,8.0,85,0.00,,,0.03,Wunderground v.1.15,2013-05-25 20:40:00,
2013-05-25 16:50:00,79.4,74.8,29.97,ENE,68,7.0,7.0,86,0.00,,,0.03,Wunderground v.1.15,2013-05-25 20:50:00,
2013-05-25 17:00:00,79.4,74.8,29.97,ESE,103,7.0,10.0,86,0.00,,,0.03,Wunderground v.1.15,2013-05-25 21:00:00,
2013-05-25 17:10:00,79.2,75.3,29.97,ENE,71,8.0,11.0,88,0.00,,,0.03,Wunderground v.1.15,2013-05-25 21:10:00,
2013-05-25 17:20:00,78.8,74.9,29.97,ENE,70,8.0,9.0,88,0.00,,,0.03,Wunderground v.1.15,2013-05-25 21:20:00,
2013-05-25 17:30:00,78.8,74.9,29.97,East,93,9.0,9.0,88,0.00,,,0.03,Wunderground v.1.15,2013-05-25 21:30:00,
2013-05-25 17:40:00,79.2,75.3,29.97,ENE,69,8.0,10.0,88,0.00,,,0.03,Wunderground v.1.15,2013-05-25 21:40:00,
2013-05-25 17:50:00,79.2,75.3,29.97,ENE,78,7.0,9.0,88,0.00,,,0.03,Wunderground v.1.15,2013-05-25 21:50:00,
2013-05-25 18:00:00,79.2,75.0,29.97,ENE,67,7.0,7.0,87,0.00,,,0.03,Wunderground v.1.15,2013-05-25 22:00:00,
2013-05-25 18:10:00,79.0,74.8,29.97,ENE,72,6.0,6.0,87,0.00,,,0.03,Wunderground v.1.15,2013-05-25 22:10:00,
2013-05-25 18:20:00,78.8,74.6,29.97,ENE,60,6.0,6.0,87,0.00,,,0.03,Wunderground v.1.15,2013-05-25 22:20:00,
2013-05-25 18:30:00,78.6,74.4,29.98,ENE,78,6.0,6.0,87,0.00,,,0.03,Wunderground v.1.15,2013-05-25 22:30:00,
2013-05-25 18:40:00,78.6,74.4,29.98,ENE,68,5.0,12.0,87,0.00,,,0.03,Wunderground v.1.15,2013-05-25 22:40:00,
2013-05-25 18:50:00,78.5,74.3,29.98,NE,52,6.0,6.0,87,0.00,,,0.03,Wunderground v.1.15,2013-05-25 22:50:00,
2013-05-25 19:00:00,78.5,74.6,29.99,ENE,63,4.0,6.0,88,0.00,,,0.03,Wunderground v.1.15,2013-05-25 23:00:00,
2013-05-25 19:10:00,78.3,74.5,29.99,ENE,60,4.0,4.0,88,0.00,,,0.03,Wunderground v.1.15,2013-05-25 23:10:00,
2013-05-25 19:20:00,78.3,74.8,29.99,ENE,59,5.0,6.0,89,0.00,,,0.03,Wunderground v.1.15,2013-05-25 23:20:00,
2013-05-25 19:30:00,78.3,74.8,30.00,NE,50,5.0,5.0,89,0.00,,,0.03,Wunderground v.1.15,2013-05-25 23:30:00,
2013-05-25 19:40:00,78.3,74.8,30.00,NE,42,5.0,5.0,89,0.00,,,0.03,Wunderground v.1.15,2013-05-25 23:40:00,
2013-05-25 19:50:00,78.3,74.8,30.00,ENE,68,5.0,11.0,89,0.00,,,0.03,Wunderground v.1.15,2013-05-25 23:50:00,
2013-05-25 20:00:00,78.1,74.6,30.01,ENE,66,6.0,9.0,89,0.00,,,0.03,Wunderground v.1.15,2013-05-26 00:00:00,
2013-05-25 20:50:00,77.6,73.8,30.01,ENE,72,6.0,6.0,88,0.00,,,0.03,Wunderground v.1.15,2013-05-26 00:50:00,
2013-05-25 21:00:00,77.6,73.8,30.02,ENE,67,5.0,5.0,88,0.00,,,0.03,Wunderground v.1.15,2013-05-26 01:00:00,
2013-05-25 21:10:00,77.6,73.8,30.02,ENE,62,4.0,4.0,88,0.00,,,0.03,Wunderground v.1.15,2013-05-26 01:10:00,
2013-05-25 21:20:00,77.6,73.4,30.02,ENE,65,5.0,5.0,87,0.00,,,0.03,Wunderground v.1.15,2013-05-26 01:20:00,
2013-05-25 21:30:00,77.7,73.2,30.03,East,80,5.0,5.0,86,0.00,,,0.03,Wunderground v.1.15,2013-05-26 01:30:00,
2013-05-25 21:40:00,78.1,73.6,30.03,ENE,69,6.0,8.0,86,0.00,,,0.03,Wunderground v.1.15,2013-05-26 01:40:00,
2013-05-25 21:50:00,78.6,74.4,30.03,ENE,77,6.0,6.0,87,0.00,,,0.03,Wunderground v.1.15,2013-05-26 01:50:00,
2013-05-25 22:00:00,78.8,74.9,30.03,ENE,60,6.0,6.0,88,0.00,,,0.03,Wunderground v.1.15,2013-05-26 02:00:00,
2013-05-25 22:10:00,78.6,74.7,30.03,NNE,33,6.0,6.0,88,0.00,,,0.03,Wunderground v.1.15,2013-05-26 02:10:00,
2013-05-25 22:20:00,78.5,74.6,30.03,NE,44,8.0,9.0,88,0.00,,,0.03,Wunderground v.1.15,2013-05-26 02:20:00,
2013-05-25 22:30:00,78.5,74.6,30.03,ENE,65,7.0,11.0,88,0.00,,,0.03,Wunderground v.1.15,2013-05-26 02:30:00,
2013-05-25 22:40:00,78.5,74.6,30.03,ENE,59,7.0,7.0,88,0.00,,,0.03,Wunderground v.1.15,2013-05-26 02:40:00,
2013-05-25 22:50:00,78.6,74.7,30.03,East,80,8.0,8.0,88,0.00,,,0.03,Wunderground v.1.15,2013-05-26 02:50:00,
2013-05-25 23:00:00,78.6,74.4,30.03,East,85,9.0,10.0,87,0.00,,,0.03,Wunderground v.1.15,2013-05-26 03:00:00,
2013-05-25 23:10:00,78.6,74.4,30.03,ENE,74,8.0,10.0,87,0.00,,,0.03,Wunderground v.1.15,2013-05-26 03:10:00,
2013-05-25 23:20:00,78.6,74.1,30.03,ENE,62,8.0,10.0,86,0.00,,,0.03,Wunderground v.1.15,2013-05-26 03:20:00,
2013-05-25 23:30:00,78.6,74.1,30.02,NE,53,8.0,8.0,86,0.00,,,0.03,Wunderground v.1.15,2013-05-26 03:30:00,
2013-05-25 23:40:00,78.6,74.1,30.02,ENE,68,8.0,8.0,86,0.00,,,0.03,Wunderground v.1.15,2013-05-26 03:40:00,
2013-05-25 23:50:00,78.6,74.1,30.02,NE,50,8.0,8.0,86,0.00,,,0.03,Wunderground v.1.15,2013-05-26 03:50:00,